Aviation Digital Data Service (ADDS)

Output produced by METARs form (0353 UTC 22 February 2017)
found at http://aviationweather.gov/adds/metars/
 
KGFL 212329Z 2200/2224 22007KT P6SM BKN100 OVC150 
     TEMPO 2203/2207 4SM -SHRA BKN030 
     FM220700 VRB03KT 3SM BR BKN008 BKN050 
     FM221400 VRB04KT P6SM BKN015